createdAt,value
2022-08-29T00:00:48.982Z,99741.69
2022-08-29T00:03:18.470Z,99738.91
2022-08-29T00:05:49.902Z,99744.56
2022-08-29T00:08:19.712Z,99734.72
2022-08-29T00:10:47.019Z,99737.94
2022-08-29T00:13:14.599Z,99739.88
2022-08-29T00:15:45.306Z,99746.91
2022-08-29T00:18:14.144Z,99748.38
2022-08-29T00:20:42.025Z,99740.59
2022-08-29T00:23:09.467Z,99740.41
2022-08-29T00:25:36.973Z,99746.19
2022-08-29T00:28:05.064Z,99742.00
2022-08-29T00:30:32.734Z,99745.53
2022-08-29T00:33:00.362Z,99741.19
2022-08-29T00:35:32.487Z,99745.34
2022-08-29T00:38:00.641Z,99744.91
2022-08-29T00:40:33.662Z,99747.44
2022-08-29T00:43:01.025Z,99749.78
2022-08-29T00:45:28.373Z,99750.53
2022-08-29T00:47:57.768Z,99752.16
2022-08-29T00:50:29.917Z,99753.31
2022-08-29T00:52:59.002Z,99762.13
2022-08-29T00:55:27.926Z,99757.09
2022-08-29T00:57:56.843Z,99753.84
2022-08-29T01:00:25.393Z,99758.59
2022-08-29T01:02:54.333Z,99766.97
2022-08-29T01:05:22.524Z,99773.28
2022-08-29T01:07:52.147Z,99760.09
2022-08-29T01:10:38.650Z,99766.72
2022-08-29T01:13:06.247Z,99765.81
2022-08-29T01:15:34.036Z,99766.13
2022-08-29T01:18:01.806Z,99766.19
2022-08-29T01:20:52.402Z,99761.94
2022-08-29T01:23:27.914Z,99764.25
2022-08-29T01:25:56.081Z,99765.34
2022-08-29T01:28:25.696Z,99762.72
2022-08-29T01:31:04.519Z,99777.03
2022-08-29T01:33:41.900Z,99773.91
2022-08-29T01:36:12.106Z,99773.81
2022-08-29T01:38:41.741Z,99777.22
2022-08-29T01:41:10.580Z,99768.25
2022-08-29T01:43:42.849Z,99775.06
2022-08-29T01:46:12.887Z,99770.28
2022-08-29T01:48:41.142Z,99770.25
2022-08-29T01:51:08.496Z,99768.94
2022-08-29T01:53:37.034Z,99766.34
2022-08-29T01:56:18.481Z,99763.03
2022-08-29T01:58:47.760Z,99768.19
2022-08-29T02:01:16.047Z,99776.06
2022-08-29T02:03:43.875Z,99774.16
2022-08-29T02:06:11.846Z,99779.16
2022-08-29T02:08:39.859Z,99768.03
2022-08-29T02:11:11.516Z,99768.72
2022-08-29T02:13:39.874Z,99773.84
2022-08-29T02:16:09.052Z,99767.38
2022-08-29T02:18:36.340Z,99766.50
2022-08-29T02:21:04.108Z,99764.56
2022-08-29T02:23:33.797Z,99765.41
2022-08-29T02:26:01.486Z,99768.25
2022-08-29T02:28:29.184Z,99762.25
2022-08-29T02:30:57.060Z,99749.81
2022-08-29T02:33:24.817Z,99751.94
2022-08-29T02:35:53.538Z,99748.28
2022-08-29T02:38:22.019Z,99758.09
2022-08-29T02:40:50.215Z,99745.41
2022-08-29T02:43:19.526Z,99744.91
2022-08-29T02:45:47.602Z,99750.94
2022-08-29T02:48:18.123Z,99754.47
2022-08-29T02:50:46.712Z,99756.53
2022-08-29T02:53:15.981Z,99746.91
2022-08-29T02:55:43.589Z,99751.00
2022-08-29T02:58:10.965Z,99750.81
2022-08-29T03:00:39.298Z,99748.41
2022-08-29T03:03:08.516Z,99751.53
2022-08-29T03:05:37.213Z,99754.34
2022-08-29T03:08:07.541Z,99751.66
2022-08-29T03:10:35.445Z,99760.22
2022-08-29T03:13:03.916Z,99765.56
2022-08-29T03:15:33.076Z,99764.72
2022-08-29T03:18:01.607Z,99761.66
2022-08-29T03:20:29.062Z,99769.34
2022-08-29T03:22:57.433Z,99774.41
2022-08-29T03:25:24.946Z,99773.19
2022-08-29T03:27:53.005Z,99779.72
2022-08-29T03:30:21.069Z,99784.53
2022-08-29T03:32:51.227Z,99794.16
2022-08-29T03:35:19.834Z,99783.41
2022-08-29T03:37:47.833Z,99784.28
2022-08-29T03:40:15.776Z,99792.63
2022-08-29T03:42:43.350Z,99788.78
2022-08-29T03:45:13.071Z,99794.72
2022-08-29T03:47:41.686Z,99787.31
2022-08-29T03:50:09.481Z,99798.88
2022-08-29T03:52:37.686Z,99812.47
2022-08-29T03:55:08.637Z,99810.47
2022-08-29T03:57:36.714Z,99819.13
2022-08-29T04:00:12.590Z,99819.94
2022-08-29T04:02:46.030Z,99830.72
2022-08-29T04:05:15.846Z,99827.47
2022-08-29T04:07:46.091Z,99824.78
2022-08-29T04:10:17.482Z,99829.06
2022-08-29T04:12:45.682Z,99835.28
2022-08-29T04:15:14.156Z,99838.97
2022-08-29T04:17:53.095Z,99833.28
2022-08-29T04:20:28.910Z,99834.97
2022-08-29T04:22:59.828Z,99827.09
2022-08-29T04:25:28.614Z,99831.31
2022-08-29T04:27:55.902Z,99827.38
2022-08-29T04:30:24.836Z,99832.47
2022-08-29T04:32:57.458Z,99841.09
2022-08-29T04:35:25.264Z,99838.25
2022-08-29T04:37:57.907Z,99847.63
2022-08-29T04:40:26.661Z,99848.63
2022-08-29T04:42:55.503Z,99844.81
2022-08-29T04:45:27.758Z,99849.59
2022-08-29T04:48:01.822Z,99840.06
2022-08-29T04:50:32.108Z,99852.28
2022-08-29T04:52:59.867Z,99849.84
2022-08-29T04:55:27.131Z,99849.59
2022-08-29T04:57:56.989Z,99854.97
2022-08-29T05:00:27.470Z,99860.19
2022-08-29T05:02:55.926Z,99849.75
2022-08-29T05:05:27.491Z,99842.38
2022-08-29T05:07:57.279Z,99850.53
2022-08-29T05:10:30.505Z,99846.41
2022-08-29T05:12:59.898Z,99843.69
2022-08-29T05:15:28.030Z,99862.13
2022-08-29T05:20:53.323Z,99861.03
2022-08-29T05:23:21.361Z,99857.94
2022-08-29T05:25:55.126Z,99854.91
2022-08-29T05:28:22.971Z,99855.78
2022-08-29T05:30:51.016Z,99855.47
2022-08-29T05:33:18.793Z,99854.19
2022-08-29T05:35:56.641Z,99861.97
2022-08-29T05:38:28.030Z,99861.34
2022-08-29T05:41:09.625Z,99856.66
2022-08-29T05:43:42.570Z,99857.22
2022-08-29T05:46:13.662Z,99861.91
2022-08-29T05:48:48.918Z,99851.97
2022-08-29T05:51:24.569Z,99858.19
2022-08-29T05:53:52.831Z,99868.78
2022-08-29T05:56:21.027Z,99866.09
2022-08-29T05:58:52.720Z,99865.81
2022-08-29T06:01:26.442Z,99868.59
2022-08-29T06:03:56.399Z,99865.63
2022-08-29T06:06:30.521Z,99864.84
2022-08-29T06:08:59.980Z,99867.16
2022-08-29T06:11:30.191Z,99874.75
2022-08-29T06:14:10.487Z,99873.28
2022-08-29T06:16:40.879Z,99873.84
2022-08-29T06:19:08.832Z,99874.94
2022-08-29T06:24:21.455Z,99887.81
2022-08-29T06:26:52.075Z,99891.75
2022-08-29T06:29:32.293Z,99890.06
2022-08-29T06:32:09.823Z,99895.44
2022-08-29T06:34:37.699Z,99893.31
2022-08-29T06:37:05.930Z,99891.34
2022-08-29T06:39:37.585Z,99897.31
2022-08-29T06:42:05.961Z,99900.38
2022-08-29T06:44:34.764Z,99907.88
2022-08-29T06:47:03.704Z,99903.03
2022-08-29T06:49:32.611Z,99906.28
2022-08-29T06:52:00.570Z,99910.06
2022-08-29T06:54:29.493Z,99912.41
2022-08-29T06:57:00.596Z,99912.03
2022-08-29T06:59:31.649Z,99915.56
2022-08-29T07:02:09.796Z,99908.00
2022-08-29T07:04:38.001Z,99906.75
2022-08-29T07:07:14.643Z,99903.38
2022-08-29T07:09:44.331Z,99911.75
2022-08-29T07:12:14.524Z,99913.31
2022-08-29T07:14:45.862Z,99915.69
2022-08-29T07:17:18.981Z,99920.25
2022-08-29T07:19:58.897Z,99913.31
2022-08-29T07:22:27.955Z,99917.91
2022-08-29T07:24:56.493Z,99917.13
2022-08-29T07:27:24.620Z,99911.88
2022-08-29T07:29:54.422Z,99917.50
2022-08-29T07:32:26.050Z,99914.12
2022-08-29T07:34:56.099Z,99919.72
2022-08-29T07:37:25.577Z,99917.69
2022-08-29T07:39:53.386Z,99914.06
2022-08-29T07:42:29.711Z,99910.31
2022-08-29T07:44:58.384Z,99918.78
2022-08-29T07:47:29.714Z,99921.31
2022-08-29T07:50:15.526Z,99920.78
2022-08-29T07:52:44.621Z,99919.34
2022-08-29T07:55:22.097Z,99914.47
2022-08-29T07:57:56.904Z,99915.19
2022-08-29T08:00:29.130Z,99912.94
2022-08-29T08:02:58.076Z,99909.00
2022-08-29T08:05:32.642Z,99915.91
2022-08-29T08:08:13.817Z,99918.84
2022-08-29T08:11:16.549Z,99921.97
2022-08-29T08:13:49.825Z,99930.03
2022-08-29T08:16:19.090Z,99928.81
2022-08-29T08:18:49.550Z,99927.84
2022-08-29T08:21:17.498Z,99923.72
2022-08-29T08:23:53.385Z,99922.53
2022-08-29T08:26:21.920Z,99930.00
2022-08-29T08:28:55.198Z,99925.53
2022-08-29T08:31:26.667Z,99916.75
2022-08-29T08:33:55.543Z,99929.59
2022-08-29T08:36:30.190Z,99923.59
2022-08-29T08:39:01.936Z,99925.50
2022-08-29T08:41:52.181Z,99924.59
2022-08-29T08:44:26.601Z,99922.28
2022-08-29T08:47:00.342Z,99927.44
2022-08-29T08:49:34.440Z,99929.91
2022-08-29T08:52:09.305Z,99926.78
2022-08-29T08:57:20.617Z,99924.37
2022-08-29T08:59:50.724Z,99925.34
2022-08-29T09:02:28.602Z,99924.31
2022-08-29T09:05:19.547Z,99929.44
2022-08-29T09:07:50.211Z,99930.50
2022-08-29T09:10:30.464Z,99923.41
2022-08-29T09:13:24.586Z,99922.41
2022-08-29T09:16:00.754Z,99924.75
2022-08-29T09:18:39.093Z,99917.44
2022-08-29T09:21:39.538Z,99919.50
2022-08-29T09:24:05.562Z,99924.56
2022-08-29T09:26:35.005Z,99922.22
2022-08-29T09:29:14.131Z,99916.13
2022-08-29T09:31:44.978Z,99916.50
2022-08-29T09:34:45.177Z,99917.63
2022-08-29T09:37:32.648Z,99908.69
2022-08-29T09:40:03.915Z,99912.72
2022-08-29T09:42:35.959Z,99911.16
2022-08-29T09:48:11.646Z,99916.19
2022-08-29T09:50:48.674Z,99915.41
2022-08-29T09:53:25.536Z,99915.25
2022-08-29T09:55:55.573Z,99919.66
2022-08-29T09:58:28.617Z,99914.19
2022-08-29T10:00:59.408Z,99915.63
2022-08-29T10:03:33.599Z,99910.25
2022-08-29T10:06:06.411Z,99912.56
2022-08-29T10:08:40.559Z,99919.69
2022-08-29T10:11:20.108Z,99926.69
2022-08-29T10:14:04.829Z,99917.75
2022-08-29T10:16:38.268Z,99915.25
2022-08-29T10:19:10.900Z,99914.91
2022-08-29T10:21:49.920Z,99922.88
2022-08-29T10:27:05.214Z,99917.94
2022-08-29T10:29:37.687Z,99922.56
2022-08-29T10:32:13.923Z,99920.19
2022-08-29T10:34:55.615Z,99921.78
2022-08-29T10:37:23.867Z,99920.84
2022-08-29T10:40:02.791Z,99919.06
2022-08-29T10:45:15.640Z,99914.00
2022-08-29T10:47:51.623Z,99919.41
2022-08-29T10:53:10.126Z,99909.75
2022-08-29T10:56:05.840Z,99901.34
2022-08-29T11:01:49.982Z,99902.56
2022-08-29T11:04:24.623Z,99899.22
2022-08-29T11:07:07.627Z,99891.75
2022-08-29T11:09:44.585Z,99891.97
2022-08-29T11:12:36.606Z,99887.25
2022-08-29T11:15:29.368Z,99894.97
2022-08-29T11:18:15.474Z,99897.03
2022-08-29T11:21:15.169Z,99892.69
2022-08-29T11:23:52.598Z,99893.87
2022-08-29T11:26:26.859Z,99887.53
2022-08-29T11:29:02.876Z,99880.38
2022-08-29T11:31:38.614Z,99884.19
2022-08-29T11:34:13.585Z,99880.88
2022-08-29T11:37:09.978Z,99879.94
2022-08-29T11:39:59.792Z,99886.06
2022-08-29T11:42:56.990Z,99882.44
2022-08-29T11:45:36.942Z,99882.66
2022-08-29T11:48:26.629Z,99877.63
2022-08-29T11:51:01.672Z,99873.81
2022-08-29T11:53:37.746Z,99880.75
2022-08-29T11:56:16.035Z,99881.78
2022-08-29T11:58:49.667Z,99884.19
2022-08-29T12:01:26.654Z,99874.09
2022-08-29T12:04:05.698Z,99871.81
2022-08-29T12:06:47.571Z,99874.78
2022-08-29T12:09:24.735Z,99877.06
2022-08-29T12:12:04.884Z,99867.97
2022-08-29T12:14:45.582Z,99867.06
2022-08-29T12:17:22.454Z,99864.37
2022-08-29T12:20:05.918Z,99870.25
2022-08-29T12:22:52.745Z,99857.28
2022-08-29T12:25:27.860Z,99865.41
2022-08-29T12:28:03.260Z,99858.44
2022-08-29T12:30:39.833Z,99854.06
2022-08-29T12:33:13.701Z,99846.78
2022-08-29T12:36:02.286Z,99842.16
2022-08-29T12:38:57.624Z,99838.41
2022-08-29T12:41:47.217Z,99835.75
2022-08-29T12:44:18.086Z,99840.91
2022-08-29T12:46:48.755Z,99831.97
2022-08-29T12:49:36.567Z,99827.03
2022-08-29T12:52:07.480Z,99831.25
2022-08-29T12:54:42.062Z,99829.50
2022-08-29T12:57:22.664Z,99828.72
2022-08-29T12:59:58.479Z,99828.53
2022-08-29T13:02:35.675Z,99815.88
2022-08-29T13:05:26.885Z,99810.84
2022-08-29T13:08:00.189Z,99805.97
2022-08-29T13:10:28.338Z,99810.63
2022-08-29T13:15:52.899Z,99806.59
2022-08-29T13:18:24.636Z,99800.12
2022-08-29T13:24:00.810Z,99799.28
2022-08-29T13:26:32.789Z,99803.50
2022-08-29T13:29:15.081Z,99801.38
2022-08-29T13:31:44.258Z,99810.50
2022-08-29T13:34:23.649Z,99796.97
2022-08-29T13:37:02.405Z,99798.06
2022-08-29T13:39:32.590Z,99800.00
2022-08-29T13:42:21.498Z,99802.50
2022-08-29T13:44:49.502Z,99794.72
2022-08-29T13:50:05.619Z,99801.19
2022-08-29T13:52:42.582Z,99802.13
2022-08-29T13:55:17.616Z,99795.09
2022-08-29T13:57:51.814Z,99795.00
2022-08-29T14:00:27.224Z,99801.56
2022-08-29T14:03:15.745Z,99790.03
2022-08-29T14:05:51.616Z,99788.28
2022-08-29T14:08:26.816Z,99794.72
2022-08-29T14:11:00.881Z,99791.88
2022-08-29T14:13:32.209Z,99792.63
2022-08-29T14:16:02.123Z,99789.13
2022-08-29T14:18:29.969Z,99786.28
2022-08-29T14:21:02.002Z,99789.97
2022-08-29T14:23:36.867Z,99785.00
2022-08-29T14:26:12.669Z,99785.13
2022-08-29T14:28:47.869Z,99789.53
2022-08-29T14:31:25.688Z,99787.47
2022-08-29T14:33:56.540Z,99776.41
2022-08-29T14:36:25.736Z,99790.03
2022-08-29T14:38:56.141Z,99779.66
2022-08-29T14:41:32.688Z,99784.81
2022-08-29T14:44:03.324Z,99777.91
2022-08-29T14:46:32.562Z,99777.69
2022-08-29T14:49:05.635Z,99782.09
2022-08-29T14:51:33.907Z,99786.56
2022-08-29T14:54:02.706Z,99785.00
2022-08-29T15:01:53.434Z,99775.78
2022-08-29T15:04:36.549Z,99783.53
2022-08-29T15:07:08.647Z,99776.47
2022-08-29T15:09:44.342Z,99784.75
2022-08-29T15:12:15.922Z,99785.44
2022-08-29T15:14:50.787Z,99781.38
2022-08-29T15:17:21.718Z,99779.47
2022-08-29T15:20:34.357Z,99780.31
2022-08-29T15:22:39.319Z,99777.97
2022-08-29T15:25:09.180Z,99784.88
2022-08-29T15:27:41.663Z,99782.31
2022-08-29T15:30:13.639Z,99781.75
2022-08-29T15:32:43.808Z,99773.72
2022-08-29T15:35:31.574Z,99781.59
2022-08-29T15:38:07.703Z,99779.06
2022-08-29T15:40:46.969Z,99777.12
2022-08-29T15:43:22.666Z,99776.41
2022-08-29T15:45:59.742Z,99771.75
2022-08-29T15:48:32.484Z,99790.72
2022-08-29T15:51:03.662Z,99790.00
2022-08-29T15:53:33.855Z,99786.84
2022-08-29T15:56:07.320Z,99786.19
2022-08-29T15:58:48.660Z,99780.34
2022-08-29T16:04:15.685Z,99774.75
2022-08-29T16:06:53.950Z,99778.88
2022-08-29T16:09:30.701Z,99782.16
2022-08-29T16:11:58.685Z,99775.34
2022-08-29T16:17:30.084Z,99779.72
2022-08-29T16:20:00.980Z,99773.00
2022-08-29T16:22:37.442Z,99774.59
2022-08-29T16:25:06.951Z,99772.81
2022-08-29T16:27:35.314Z,99769.72
2022-08-29T16:30:04.987Z,99774.28
2022-08-29T16:32:34.044Z,99773.75
2022-08-29T16:35:04.552Z,99776.75
2022-08-29T16:37:45.621Z,99770.25
2022-08-29T16:40:28.066Z,99771.94
2022-08-29T16:43:00.678Z,99788.13
2022-08-29T16:45:33.015Z,99785.53
2022-08-29T16:48:10.776Z,99788.69
2022-08-29T16:50:51.076Z,99791.22
2022-08-29T16:53:38.519Z,99797.13
2022-08-29T16:56:17.646Z,99806.81
2022-08-29T16:59:03.790Z,99811.00
2022-08-29T17:01:39.930Z,99816.19
2022-08-29T17:04:15.055Z,99805.78
2022-08-29T17:06:47.681Z,99820.19
2022-08-29T17:11:51.866Z,99822.53
2022-08-29T17:14:30.166Z,99823.94
2022-08-29T17:17:03.264Z,99831.97
2022-08-29T17:19:33.526Z,99831.97
2022-08-29T17:22:06.036Z,99843.56
2022-08-29T17:24:34.700Z,99836.00
2022-08-29T17:27:06.749Z,99836.62
2022-08-29T17:32:24.770Z,99841.53
2022-08-29T17:34:52.996Z,99846.03
2022-08-29T17:37:24.158Z,99847.78
2022-08-29T17:39:59.069Z,99853.78
2022-08-29T17:42:28.048Z,99852.69
2022-08-29T17:45:04.772Z,99861.94
2022-08-29T17:47:34.941Z,99856.16
2022-08-29T17:50:05.758Z,99861.66
2022-08-29T17:52:47.417Z,99864.47
2022-08-29T17:55:15.408Z,99870.84
2022-08-29T17:58:00.156Z,99881.22
2022-08-29T18:00:37.826Z,99884.78
2022-08-29T18:03:14.946Z,99887.37
2022-08-29T18:05:44.692Z,99892.88
2022-08-29T18:08:17.846Z,99895.19
2022-08-29T18:10:57.710Z,99897.03
2022-08-29T18:13:26.125Z,99896.56
2022-08-29T18:18:42.365Z,99906.81
2022-08-29T18:21:32.839Z,99907.66
2022-08-29T18:24:10.803Z,99908.44
2022-08-29T18:29:22.904Z,99915.09
2022-08-29T18:31:52.081Z,99914.59
2022-08-29T18:37:05.667Z,99920.72
2022-08-29T18:39:44.167Z,99925.97
2022-08-29T18:42:38.816Z,99926.56
2022-08-29T18:45:09.698Z,99932.66
2022-08-29T18:47:46.996Z,99928.47
2022-08-29T18:50:29.679Z,99928.88
2022-08-29T18:52:58.864Z,99934.94
2022-08-29T18:55:34.794Z,99933.59
2022-08-29T18:58:09.964Z,99939.75
2022-08-29T19:00:46.133Z,99934.91
2022-08-29T19:03:18.755Z,99941.19
2022-08-29T19:06:07.722Z,99938.91
2022-08-29T19:08:41.881Z,99946.56
2022-08-29T19:11:22.911Z,99941.63
2022-08-29T19:13:53.867Z,99950.63
2022-08-29T19:16:32.824Z,99945.59
2022-08-29T19:19:16.832Z,99949.31
2022-08-29T19:21:54.608Z,99945.91
2022-08-29T19:24:43.734Z,99951.84
2022-08-29T19:27:42.352Z,99945.44
2022-08-29T19:30:19.703Z,99952.03
2022-08-29T19:33:03.788Z,99955.97
2022-08-29T19:35:33.315Z,99963.72
2022-08-29T19:38:04.873Z,99967.50
2022-08-29T19:40:39.930Z,99973.75
2022-08-29T19:43:17.856Z,99972.03
2022-08-29T19:45:59.014Z,99964.41
2022-08-29T19:48:33.764Z,99966.62
2022-08-29T19:51:12.890Z,99966.09
2022-08-29T19:53:55.893Z,99963.72
2022-08-29T19:56:26.900Z,99964.91
2022-08-29T19:58:59.799Z,99972.22
2022-08-29T20:01:36.817Z,99980.66
2022-08-29T20:04:13.217Z,99971.16
2022-08-29T20:06:42.385Z,99977.06
2022-08-29T20:09:25.181Z,99973.56
2022-08-29T20:11:56.840Z,99965.41
2022-08-29T20:14:40.172Z,99969.81
2022-08-29T20:17:13.729Z,99974.69
2022-08-29T20:22:25.732Z,99975.69
2022-08-29T20:24:55.754Z,99980.25
2022-08-29T20:30:04.971Z,99977.13
2022-08-29T20:32:56.760Z,99981.41
2022-08-29T20:35:52.167Z,99972.91
2022-08-29T20:38:22.158Z,99981.56
2022-08-29T20:41:09.147Z,99981.06
2022-08-29T20:43:39.330Z,99979.06
2022-08-29T20:46:08.153Z,99989.22
2022-08-29T20:48:44.731Z,99994.88
2022-08-29T20:51:14.122Z,99987.09
2022-08-29T20:53:45.052Z,99987.03
2022-08-29T20:58:47.847Z,99982.69
2022-08-29T21:01:16.835Z,99983.34
2022-08-29T21:04:04.830Z,99987.22
2022-08-29T21:06:34.263Z,99988.59
2022-08-29T21:09:02.750Z,99986.28
2022-08-29T21:11:32.065Z,99979.28
2022-08-29T21:14:00.615Z,99981.69
2022-08-29T21:16:28.684Z,99984.84
2022-08-29T21:18:57.162Z,99980.47
2022-08-29T21:21:28.069Z,99968.84
2022-08-29T21:23:56.656Z,99980.41
2022-08-29T21:26:24.769Z,99976.31
2022-08-29T21:28:52.913Z,99973.44
2022-08-29T21:31:23.945Z,99978.19
2022-08-29T21:33:51.654Z,99979.22
2022-08-29T21:36:22.651Z,99976.44
2022-08-29T21:38:52.759Z,99989.41
2022-08-29T21:41:21.985Z,99978.59
2022-08-29T21:43:50.989Z,99978.84
2022-08-29T21:46:26.030Z,99975.97
2022-08-29T21:48:58.015Z,99985.25
2022-08-29T21:51:25.986Z,99974.84
2022-08-29T21:53:56.156Z,99987.00
2022-08-29T21:56:24.368Z,99984.94
2022-08-29T21:58:54.770Z,99991.47
2022-08-29T22:01:27.921Z,99996.78
2022-08-29T22:03:57.155Z,99986.84
2022-08-29T22:06:27.693Z,99996.78
2022-08-29T22:09:02.094Z,99990.56
2022-08-29T22:11:37.122Z,99995.16
2022-08-29T22:14:06.706Z,99992.41
2022-08-29T22:16:34.827Z,99998.12
2022-08-29T22:19:15.006Z,99995.78
2022-08-29T22:21:44.986Z,99992.53
2022-08-29T22:24:13.350Z,99995.50
2022-08-29T22:26:41.149Z,100003.72
2022-08-29T22:29:11.937Z,99996.69
2022-08-29T22:31:40.429Z,100002.50
2022-08-29T22:34:11.620Z,100000.16
2022-08-29T22:36:39.252Z,100006.72
2022-08-29T22:39:08.042Z,100011.03
2022-08-29T22:41:36.673Z,100013.63
2022-08-29T22:46:54.537Z,100015.97
2022-08-29T22:49:24.829Z,100020.34
2022-08-29T22:51:55.505Z,100015.38
2022-08-29T22:54:36.678Z,100012.41
2022-08-29T22:57:07.186Z,100027.56
2022-08-29T22:59:34.877Z,100029.38
2022-08-29T23:02:02.842Z,100028.53
2022-08-29T23:04:30.761Z,100033.66
2022-08-29T23:06:58.375Z,100031.56
2022-08-29T23:09:26.039Z,100039.25
2022-08-29T23:11:53.999Z,100036.63
2022-08-29T23:14:21.494Z,100030.19
2022-08-29T23:16:49.095Z,100026.41
2022-08-29T23:19:16.868Z,100034.13
2022-08-29T23:21:44.993Z,100038.13
2022-08-29T23:24:12.451Z,100038.34
2022-08-29T23:26:42.894Z,100038.72
2022-08-29T23:29:10.882Z,100041.44
2022-08-29T23:31:38.714Z,100044.72
2022-08-29T23:34:07.588Z,100041.81
2022-08-29T23:36:36.001Z,100046.09
2022-08-29T23:39:05.841Z,100051.72
2022-08-29T23:41:34.007Z,100055.75
2022-08-29T23:44:01.435Z,100054.31
2022-08-29T23:46:29.971Z,100049.50
2022-08-29T23:48:58.745Z,100053.13
2022-08-29T23:51:28.289Z,100047.09
2022-08-29T23:53:55.843Z,100048.06
2022-08-29T23:56:25.358Z,100049.72
2022-08-29T23:58:57.112Z,100052.81
